Pocono Lake Preserve, Pennsylvania
Current Conditions -  °F | °C
As of 9:53 AM on Friday 19 Dec 2014 (Local Time) from KMPO Reporting Station
Overcast Overcast  
Wind Chill: 15°   Ceiling: 1500
Heat Index: 26°   Visibility: 10mi
Dew Point: 19°   Wind: 13mph
Humidity: 75%   Direction: 320°NW
Pressure: 30"   Gusts: 22mph
Location:  41.1°N, 75.48°W
Report Text: KMPO 191453Z AUTO 32011G19KT 10SM OVC015 M03/M07 A3000 RMK AO2 SLP184 T10331072 53023
Loading
Personal Weather Stations






























Interactive Weather Map New forecast layout! Learn more

10-Day Weather Forecast

Advertisements
Track Severe Weather on mobile